sensor_id;sensor_type;location;lat;lon;timestamp;temperature;humidity
40670;DHT22;26355;45.528;9.234;2023-04-21T00:02:05;14.00;99.90
40670;DHT22;26355;45.528;9.234;2023-04-21T00:04:31;14.00;99.90
40670;DHT22;26355;45.528;9.234;2023-04-21T00:06:57;14.00;99.90
40670;DHT22;26355;45.528;9.234;2023-04-21T00:09:26;14.00;99.90
40670;DHT22;26355;45.528;9.234;2023-04-21T00:11:52;14.00;99.90
40670;DHT22;26355;45.528;9.234;2023-04-21T00:14:17;14.00;99.90
40670;DHT22;26355;45.528;9.234;2023-04-21T00:16:43;14.00;99.90
40670;DHT22;26355;45.528;9.234;2023-04-21T00:19:09;14.00;99.90
40670;DHT22;26355;45.528;9.234;2023-04-21T00:21:34;14.00;99.90
40670;DHT22;26355;45.528;9.234;2023-04-21T00:24:06;14.00;99.90
40670;DHT22;26355;45.528;9.234;2023-04-21T00:26:32;14.10;99.90
40670;DHT22;26355;45.528;9.234;2023-04-21T00:28:58;14.00;99.90
40670;DHT22;26355;45.528;9.234;2023-04-21T00:31:23;14.00;99.90
40670;DHT22;26355;45.528;9.234;2023-04-21T00:33:49;14.00;99.90
40670;DHT22;26355;45.528;9.234;2023-04-21T00:36:14;14.10;99.90
40670;DHT22;26355;45.528;9.234;2023-04-21T00:38:40;14.10;99.90
40670;DHT22;26355;45.528;9.234;2023-04-21T00:41:06;13.90;99.90
40670;DHT22;26355;45.528;9.234;2023-04-21T00:43:34;13.90;99.90
40670;DHT22;26355;45.528;9.234;2023-04-21T00:45:59;13.90;99.90
40670;DHT22;26355;45.528;9.234;2023-04-21T00:48:25;13.90;99.90
40670;DHT22;26355;45.528;9.234;2023-04-21T00:50:51;13.90;99.90
40670;DHT22;26355;45.528;9.234;2023-04-21T00:53:16;13.90;99.90
40670;DHT22;26355;45.528;9.234;2023-04-21T00:55:42;14.00;99.90
40670;DHT22;26355;45.528;9.234;2023-04-21T00:58:08;13.90;99.90
40670;DHT22;26355;45.528;9.234;2023-04-21T01:00:33;13.90;99.90
40670;DHT22;26355;45.528;9.234;2023-04-21T01:02:59;13.90;99.90
40670;DHT22;26355;45.528;9.234;2023-04-21T01:05:25;13.90;99.90
40670;DHT22;26355;45.528;9.234;2023-04-21T01:07:52;13.90;99.90
40670;DHT22;26355;45.528;9.234;2023-04-21T01:10:17;13.80;99.90
40670;DHT22;26355;45.528;9.234;2023-04-21T01:12:44;14.60;99.90
40670;DHT22;26355;45.528;9.234;2023-04-21T01:15:11;13.90;99.90
40670;DHT22;26355;45.528;9.234;2023-04-21T01:17:37;13.90;99.90
40670;DHT22;26355;45.528;9.234;2023-04-21T01:20:10;14.00;99.90
40670;DHT22;26355;45.528;9.234;2023-04-21T01:22:37;13.90;99.90
40670;DHT22;26355;45.528;9.234;2023-04-21T01:25:03;14.00;99.90
40670;DHT22;26355;45.528;9.234;2023-04-21T01:27:30;13.80;99.90
40670;DHT22;26355;45.528;9.234;2023-04-21T01:29:56;13.90;99.90
40670;DHT22;26355;45.528;9.234;2023-04-21T01:32:26;13.90;99.90
40670;DHT22;26355;45.528;9.234;2023-04-21T01:34:54;14.00;99.90
40670;DHT22;26355;45.528;9.234;2023-04-21T01:37:24;13.90;99.90
40670;DHT22;26355;45.528;9.234;2023-04-21T01:39:52;14.00;99.90
40670;DHT22;26355;45.528;9.234;2023-04-21T01:42:23;13.90;99.90
40670;DHT22;26355;45.528;9.234;2023-04-21T01:44:49;14.00;99.90
40670;DHT22;26355;45.528;9.234;2023-04-21T01:47:16;13.90;99.90
40670;DHT22;26355;45.528;9.234;2023-04-21T01:49:44;13.90;99.90
40670;DHT22;26355;45.528;9.234;2023-04-21T01:52:10;13.90;99.90
40670;DHT22;26355;45.528;9.234;2023-04-21T01:54:35;13.80;99.90
40670;DHT22;26355;45.528;9.234;2023-04-21T01:57:05;13.90;99.90
40670;DHT22;26355;45.528;9.234;2023-04-21T01:59:31;13.90;99.90
40670;DHT22;26355;45.528;9.234;2023-04-21T02:01:56;13.90;99.90
40670;DHT22;26355;45.528;9.234;2023-04-21T02:04:22;13.80;99.90
40670;DHT22;26355;45.528;9.234;2023-04-21T02:06:47;13.80;99.90
40670;DHT22;26355;45.528;9.234;2023-04-21T02:09:13;13.90;99.90
40670;DHT22;26355;45.528;9.234;2023-04-21T02:11:48;13.80;99.90
40670;DHT22;26355;45.528;9.234;2023-04-21T02:14:13;13.80;99.90
40670;DHT22;26355;45.528;9.234;2023-04-21T02:16:39;13.80;99.90
40670;DHT22;26355;45.528;9.234;2023-04-21T02:19:04;13.80;99.90
40670;DHT22;26355;45.528;9.234;2023-04-21T02:21:30;13.90;99.90
40670;DHT22;26355;45.528;9.234;2023-04-21T02:23:57;14.20;99.90
40670;DHT22;26355;45.528;9.234;2023-04-21T02:26:22;14.00;99.90
40670;DHT22;26355;45.528;9.234;2023-04-21T02:28:48;13.90;99.90
40670;DHT22;26355;45.528;9.234;2023-04-21T02:31:15;14.20;99.90
40670;DHT22;26355;45.528;9.234;2023-04-21T02:33:40;14.00;99.90
40670;DHT22;26355;45.528;9.234;2023-04-21T02:36:06;14.00;99.90
40670;DHT22;26355;45.528;9.234;2023-04-21T02:38:32;14.00;99.90
40670;DHT22;26355;45.528;9.234;2023-04-21T02:40:57;14.00;99.90
40670;DHT22;26355;45.528;9.234;2023-04-21T02:43:23;14.10;99.90
40670;DHT22;26355;45.528;9.234;2023-04-21T02:45:52;13.90;99.90
40670;DHT22;26355;45.528;9.234;2023-04-21T02:48:18;14.10;99.90
40670;DHT22;26355;45.528;9.234;2023-04-21T02:50:53;14.10;99.90
40670;DHT22;26355;45.528;9.234;2023-04-21T02:53:19;14.10;99.90
40670;DHT22;26355;45.528;9.234;2023-04-21T02:55:45;14.00;99.90
40670;DHT22;26355;45.528;9.234;2023-04-21T02:58:10;14.00;99.90
40670;DHT22;26355;45.528;9.234;2023-04-21T03:00:36;14.00;99.90
40670;DHT22;26355;45.528;9.234;2023-04-21T03:03:02;13.90;99.90
40670;DHT22;26355;45.528;9.234;2023-04-21T03:05:27;13.90;99.90
40670;DHT22;26355;45.528;9.234;2023-04-21T03:07:53;13.90;99.90
40670;DHT22;26355;45.528;9.234;2023-04-21T03:10:19;14.00;99.90
40670;DHT22;26355;45.528;9.234;2023-04-21T03:12:44;13.90;99.90
40670;DHT22;26355;45.528;9.234;2023-04-21T03:15:10;13.90;99.90
40670;DHT22;26355;45.528;9.234;2023-04-21T03:17:37;14.10;99.90
40670;DHT22;26355;45.528;9.234;2023-04-21T03:20:03;14.00;99.90
40670;DHT22;26355;45.528;9.234;2023-04-21T03:22:31;14.00;99.90
40670;DHT22;26355;45.528;9.234;2023-04-21T03:24:56;14.10;99.90
40670;DHT22;26355;45.528;9.234;2023-04-21T03:27:22;14.70;99.90
40670;DHT22;26355;45.528;9.234;2023-04-21T03:29:47;14.10;99.90
40670;DHT22;26355;45.528;9.234;2023-04-21T03:32:13;14.10;99.90
40670;DHT22;26355;45.528;9.234;2023-04-21T03:34:38;14.10;99.90
40670;DHT22;26355;45.528;9.234;2023-04-21T03:37:04;14.10;99.90
40670;DHT22;26355;45.528;9.234;2023-04-21T03:39:30;14.10;99.90
40670;DHT22;26355;45.528;9.234;2023-04-21T03:41:56;13.90;99.90
40670;DHT22;26355;45.528;9.234;2023-04-21T03:44:24;14.00;99.90
40670;DHT22;26355;45.528;9.234;2023-04-21T03:46:52;14.00;99.90
40670;DHT22;26355;45.528;9.234;2023-04-21T03:49:18;14.00;99.90
40670;DHT22;26355;45.528;9.234;2023-04-21T03:51:44;14.00;99.90
40670;DHT22;26355;45.528;9.234;2023-04-21T03:54:09;14.00;99.90
40670;DHT22;26355;45.528;9.234;2023-04-21T03:56:38;13.90;99.90
40670;DHT22;26355;45.528;9.234;2023-04-21T03:59:03;14.00;99.90
40670;DHT22;26355;45.528;9.234;2023-04-21T04:01:30;14.00;99.90
40670;DHT22;26355;45.528;9.234;2023-04-21T04:03:56;13.90;99.90
40670;DHT22;26355;45.528;9.234;2023-04-21T04:06:21;13.80;99.90
40670;DHT22;26355;45.528;9.234;2023-04-21T04:08:47;13.90;99.90
40670;DHT22;26355;45.528;9.234;2023-04-21T04:11:12;13.80;99.90
40670;DHT22;26355;45.528;9.234;2023-04-21T04:13:38;13.80;99.90
40670;DHT22;26355;45.528;9.234;2023-04-21T04:16:04;13.90;99.90
40670;DHT22;26355;45.528;9.234;2023-04-21T04:18:33;13.90;99.90
40670;DHT22;26355;45.528;9.234;2023-04-21T04:21:07;14.00;99.90
40670;DHT22;26355;45.528;9.234;2023-04-21T04:23:33;13.90;99.90
40670;DHT22;26355;45.528;9.234;2023-04-21T04:25:59;14.00;99.90
40670;DHT22;26355;45.528;9.234;2023-04-21T04:28:26;14.30;99.90
40670;DHT22;26355;45.528;9.234;2023-04-21T04:30:51;14.50;99.90
40670;DHT22;26355;45.528;9.234;2023-04-21T04:33:17;14.10;99.90
40670;DHT22;26355;45.528;9.234;2023-04-21T04:35:42;14.10;99.90
40670;DHT22;26355;45.528;9.234;2023-04-21T04:38:08;14.20;99.90
40670;DHT22;26355;45.528;9.234;2023-04-21T04:40:34;14.10;99.90
40670;DHT22;26355;45.528;9.234;2023-04-21T04:43:00;14.10;99.90
40670;DHT22;26355;45.528;9.234;2023-04-21T04:45:26;14.00;99.90
40670;DHT22;26355;45.528;9.234;2023-04-21T04:47:52;14.10;99.90
40670;DHT22;26355;45.528;9.234;2023-04-21T04:50:18;14.10;99.90
40670;DHT22;26355;45.528;9.234;2023-04-21T04:52:44;14.00;99.90
40670;DHT22;26355;45.528;9.234;2023-04-21T04:55:11;14.10;99.90
40670;DHT22;26355;45.528;9.234;2023-04-21T04:57:37;14.00;99.90
40670;DHT22;26355;45.528;9.234;2023-04-21T05:00:05;14.00;99.90
40670;DHT22;26355;45.528;9.234;2023-04-21T05:02:31;14.00;99.90
40670;DHT22;26355;45.528;9.234;2023-04-21T05:04:57;14.00;99.90
40670;DHT22;26355;45.528;9.234;2023-04-21T05:07:22;13.90;99.90
40670;DHT22;26355;45.528;9.234;2023-04-21T05:09:48;14.00;99.90
40670;DHT22;26355;45.528;9.234;2023-04-21T05:12:13;14.00;99.90
40670;DHT22;26355;45.528;9.234;2023-04-21T05:14:39;14.10;99.90
40670;DHT22;26355;45.528;9.234;2023-04-21T05:17:04;13.90;99.90
40670;DHT22;26355;45.528;9.234;2023-04-21T05:19:30;14.00;99.90
40670;DHT22;26355;45.528;9.234;2023-04-21T05:21:59;14.20;99.90
40670;DHT22;26355;45.528;9.234;2023-04-21T05:24:27;14.00;99.90
40670;DHT22;26355;45.528;9.234;2023-04-21T05:26:53;14.00;99.90
40670;DHT22;26355;45.528;9.234;2023-04-21T05:29:19;14.00;99.90
40670;DHT22;26355;45.528;9.234;2023-04-21T05:31:45;14.00;99.90
40670;DHT22;26355;45.528;9.234;2023-04-21T05:34:10;14.00;99.90
40670;DHT22;26355;45.528;9.234;2023-04-21T05:36:36;14.00;99.90
40670;DHT22;26355;45.528;9.234;2023-04-21T05:39:05;14.20;99.90
40670;DHT22;26355;45.528;9.234;2023-04-21T05:41:30;14.10;99.90
40670;DHT22;26355;45.528;9.234;2023-04-21T05:43:56;14.20;99.90
40670;DHT22;26355;45.528;9.234;2023-04-21T05:46:21;14.10;99.90
40670;DHT22;26355;45.528;9.234;2023-04-21T05:48:47;14.10;99.90
40670;DHT22;26355;45.528;9.234;2023-04-21T05:51:13;14.00;99.90
40670;DHT22;26355;45.528;9.234;2023-04-21T05:53:43;14.10;99.90
40670;DHT22;26355;45.528;9.234;2023-04-21T05:56:09;14.10;99.90
40670;DHT22;26355;45.528;9.234;2023-04-21T05:58:35;14.20;99.90
40670;DHT22;26355;45.528;9.234;2023-04-21T06:01:01;14.10;99.90
40670;DHT22;26355;45.528;9.234;2023-04-21T06:03:26;14.30;99.90
40670;DHT22;26355;45.528;9.234;2023-04-21T06:05:55;14.10;99.90
40670;DHT22;26355;45.528;9.234;2023-04-21T06:08:21;14.10;99.90
40670;DHT22;26355;45.528;9.234;2023-04-21T06:10:47;14.30;99.90
40670;DHT22;26355;45.528;9.234;2023-04-21T06:13:12;14.20;99.90
40670;DHT22;26355;45.528;9.234;2023-04-21T06:15:38;14.20;99.90
40670;DHT22;26355;45.528;9.234;2023-04-21T06:18:03;14.10;99.90
40670;DHT22;26355;45.528;9.234;2023-04-21T06:20:29;14.20;99.90
40670;DHT22;26355;45.528;9.234;2023-04-21T06:22:55;14.20;99.90
40670;DHT22;26355;45.528;9.234;2023-04-21T06:25:20;14.40;99.90
40670;DHT22;26355;45.528;9.234;2023-04-21T06:27:46;14.10;99.90
40670;DHT22;26355;45.528;9.234;2023-04-21T06:30:12;14.20;99.90
40670;DHT22;26355;45.528;9.234;2023-04-21T06:32:38;14.30;99.90
40670;DHT22;26355;45.528;9.234;2023-04-21T06:35:04;14.10;99.90
40670;DHT22;26355;45.528;9.234;2023-04-21T06:37:29;14.30;99.90
40670;DHT22;26355;45.528;9.234;2023-04-21T06:39:55;14.20;99.90
40670;DHT22;26355;45.528;9.234;2023-04-21T06:42:21;14.20;99.90
40670;DHT22;26355;45.528;9.234;2023-04-21T06:44:46;14.30;99.90
40670;DHT22;26355;45.528;9.234;2023-04-21T06:47:12;14.30;99.90
40670;DHT22;26355;45.528;9.234;2023-04-21T06:49:37;14.30;99.90
40670;DHT22;26355;45.528;9.234;2023-04-21T06:52:03;14.40;99.90
40670;DHT22;26355;45.528;9.234;2023-04-21T06:54:29;14.50;99.90
40670;DHT22;26355;45.528;9.234;2023-04-21T06:56:55;14.40;99.90
40670;DHT22;26355;45.528;9.234;2023-04-21T06:59:21;14.40;99.90
40670;DHT22;26355;45.528;9.234;2023-04-21T07:01:47;14.40;99.90
40670;DHT22;26355;45.528;9.234;2023-04-21T07:04:17;14.40;99.90
40670;DHT22;26355;45.528;9.234;2023-04-21T07:06:43;14.40;99.90
40670;DHT22;26355;45.528;9.234;2023-04-21T07:09:09;14.30;99.90
40670;DHT22;26355;45.528;9.234;2023-04-21T07:11:34;14.50;99.90
40670;DHT22;26355;45.528;9.234;2023-04-21T07:14:00;14.50;99.90
40670;DHT22;26355;45.528;9.234;2023-04-21T07:16:27;14.50;99.90
40670;DHT22;26355;45.528;9.234;2023-04-21T07:18:53;14.60;99.90
40670;DHT22;26355;45.528;9.234;2023-04-21T07:21:18;14.50;99.90
40670;DHT22;26355;45.528;9.234;2023-04-21T07:23:44;14.50;99.90
40670;DHT22;26355;45.528;9.234;2023-04-21T07:26:10;14.50;99.90
40670;DHT22;26355;45.528;9.234;2023-04-21T07:28:36;14.60;99.90
40670;DHT22;26355;45.528;9.234;2023-04-21T07:31:02;14.50;99.90
40670;DHT22;26355;45.528;9.234;2023-04-21T07:33:28;14.70;99.90
40670;DHT22;26355;45.528;9.234;2023-04-21T07:35:53;14.70;99.90
40670;DHT22;26355;45.528;9.234;2023-04-21T07:38:19;14.70;99.90
40670;DHT22;26355;45.528;9.234;2023-04-21T07:40:45;14.70;99.90
40670;DHT22;26355;45.528;9.234;2023-04-21T07:43:10;14.80;99.90
40670;DHT22;26355;45.528;9.234;2023-04-21T07:45:36;14.80;99.90
40670;DHT22;26355;45.528;9.234;2023-04-21T07:48:02;14.90;99.90
40670;DHT22;26355;45.528;9.234;2023-04-21T07:50:27;14.80;99.90
40670;DHT22;26355;45.528;9.234;2023-04-21T07:52:53;14.90;99.90
40670;DHT22;26355;45.528;9.234;2023-04-21T07:55:18;14.90;99.90
40670;DHT22;26355;45.528;9.234;2023-04-21T07:57:44;14.90;99.90
40670;DHT22;26355;45.528;9.234;2023-04-21T08:00:10;14.90;99.90
40670;DHT22;26355;45.528;9.234;2023-04-21T08:02:45;14.80;99.90
40670;DHT22;26355;45.528;9.234;2023-04-21T08:05:11;14.80;99.90
40670;DHT22;26355;45.528;9.234;2023-04-21T08:07:39;14.90;99.90
40670;DHT22;26355;45.528;9.234;2023-04-21T08:10:06;15.00;99.90
40670;DHT22;26355;45.528;9.234;2023-04-21T08:12:34;16.20;99.90
40670;DHT22;26355;45.528;9.234;2023-04-21T08:14:59;15.00;99.90
40670;DHT22;26355;45.528;9.234;2023-04-21T08:17:30;15.00;99.90
40670;DHT22;26355;45.528;9.234;2023-04-21T08:19:55;15.00;99.90
40670;DHT22;26355;45.528;9.234;2023-04-21T08:22:21;15.10;99.90
40670;DHT22;26355;45.528;9.234;2023-04-21T08:24:47;15.10;99.90
40670;DHT22;26355;45.528;9.234;2023-04-21T08:27:12;15.10;99.90
40670;DHT22;26355;45.528;9.234;2023-04-21T08:29:38;15.10;99.90
40670;DHT22;26355;45.528;9.234;2023-04-21T08:32:04;15.20;99.90
40670;DHT22;26355;45.528;9.234;2023-04-21T08:34:30;15.20;99.90
40670;DHT22;26355;45.528;9.234;2023-04-21T08:36:55;15.20;99.90
40670;DHT22;26355;45.528;9.234;2023-04-21T08:39:21;15.30;99.90
40670;DHT22;26355;45.528;9.234;2023-04-21T08:41:46;15.30;99.90
40670;DHT22;26355;45.528;9.234;2023-04-21T08:44:12;15.30;99.90
40670;DHT22;26355;45.528;9.234;2023-04-21T08:46:38;15.30;99.90
40670;DHT22;26355;45.528;9.234;2023-04-21T08:49:04;15.30;99.90
40670;DHT22;26355;45.528;9.234;2023-04-21T08:51:31;15.80;99.90
40670;DHT22;26355;45.528;9.234;2023-04-21T08:53:57;15.40;99.90
40670;DHT22;26355;45.528;9.234;2023-04-21T08:56:25;15.40;99.90
40670;DHT22;26355;45.528;9.234;2023-04-21T08:58:51;15.40;99.90
40670;DHT22;26355;45.528;9.234;2023-04-21T09:01:17;15.30;99.90
40670;DHT22;26355;45.528;9.234;2023-04-21T09:03:42;15.30;99.90
40670;DHT22;26355;45.528;9.234;2023-04-21T09:06:08;15.40;99.90
40670;DHT22;26355;45.528;9.234;2023-04-21T09:08:38;15.40;99.90
40670;DHT22;26355;45.528;9.234;2023-04-21T09:11:06;15.40;99.90
40670;DHT22;26355;45.528;9.234;2023-04-21T09:13:35;15.40;99.90
40670;DHT22;26355;45.528;9.234;2023-04-21T09:16:03;15.40;99.90
40670;DHT22;26355;45.528;9.234;2023-04-21T09:18:30;15.50;99.90
40670;DHT22;26355;45.528;9.234;2023-04-21T09:23:46;15.50;99.90
40670;DHT22;26355;45.528;9.234;2023-04-21T09:26:13;15.50;99.90
40670;DHT22;26355;45.528;9.234;2023-04-21T09:28:46;15.50;99.90
40670;DHT22;26355;45.528;9.234;2023-04-21T09:31:22;15.60;99.90
40670;DHT22;26355;45.528;9.234;2023-04-21T09:33:55;15.60;99.90
40670;DHT22;26355;45.528;9.234;2023-04-21T09:36:25;15.80;99.90
40670;DHT22;26355;45.528;9.234;2023-04-21T09:38:55;15.80;99.90
40670;DHT22;26355;45.528;9.234;2023-04-21T09:41:22;15.80;99.90
40670;DHT22;26355;45.528;9.234;2023-04-21T09:43:48;15.90;99.90
40670;DHT22;26355;45.528;9.234;2023-04-21T09:46:17;15.90;99.90
40670;DHT22;26355;45.528;9.234;2023-04-21T09:48:44;16.00;99.90
40670;DHT22;26355;45.528;9.234;2023-04-21T09:51:11;15.90;99.90
40670;DHT22;26355;45.528;9.234;2023-04-21T09:53:39;16.00;99.90
40670;DHT22;26355;45.528;9.234;2023-04-21T09:56:05;15.90;99.90
40670;DHT22;26355;45.528;9.234;2023-04-21T09:58:32;15.90;99.90
40670;DHT22;26355;45.528;9.234;2023-04-21T10:01:03;16.00;99.90
40670;DHT22;26355;45.528;9.234;2023-04-21T10:03:29;16.20;99.90
40670;DHT22;26355;45.528;9.234;2023-04-21T10:05:55;16.30;99.90
40670;DHT22;26355;45.528;9.234;2023-04-21T10:08:21;16.40;99.90
40670;DHT22;26355;45.528;9.234;2023-04-21T10:10:47;16.50;99.90
40670;DHT22;26355;45.528;9.234;2023-04-21T10:13:14;16.60;99.90
40670;DHT22;26355;45.528;9.234;2023-04-21T10:15:41;16.80;99.90
40670;DHT22;26355;45.528;9.234;2023-04-21T10:18:15;16.90;99.90
40670;DHT22;26355;45.528;9.234;2023-04-21T10:21:01;17.00;99.90
40670;DHT22;26355;45.528;9.234;2023-04-21T10:26:12;17.00;99.90
40670;DHT22;26355;45.528;9.234;2023-04-21T10:36:31;17.50;99.90
40670;DHT22;26355;45.528;9.234;2023-04-21T10:39:00;17.70;99.90
40670;DHT22;26355;45.528;9.234;2023-04-21T10:41:30;17.90;99.90
40670;DHT22;26355;45.528;9.234;2023-04-21T10:46:36;18.00;99.90
40670;DHT22;26355;45.528;9.234;2023-04-21T10:49:20;17.90;99.90
40670;DHT22;26355;45.528;9.234;2023-04-21T10:57:07;17.80;99.90
40670;DHT22;26355;45.528;9.234;2023-04-21T10:59:34;17.80;99.90
40670;DHT22;26355;45.528;9.234;2023-04-21T11:02:02;17.80;99.90
40670;DHT22;26355;45.528;9.234;2023-04-21T11:04:27;17.80;99.90
40670;DHT22;26355;45.528;9.234;2023-04-21T11:07:12;17.60;99.90
40670;DHT22;26355;45.528;9.234;2023-04-21T11:09:39;17.60;99.90
40670;DHT22;26355;45.528;9.234;2023-04-21T11:12:07;17.60;99.90
40670;DHT22;26355;45.528;9.234;2023-04-21T11:14:34;17.80;99.90
40670;DHT22;26355;45.528;9.234;2023-04-21T11:17:00;17.90;99.90
40670;DHT22;26355;45.528;9.234;2023-04-21T11:19:26;17.90;99.90
40670;DHT22;26355;45.528;9.234;2023-04-21T11:21:52;18.10;99.90
40670;DHT22;26355;45.528;9.234;2023-04-21T11:24:20;17.90;99.90
40670;DHT22;26355;45.528;9.234;2023-04-21T11:26:51;17.90;99.90
40670;DHT22;26355;45.528;9.234;2023-04-21T11:29:17;17.90;99.90
40670;DHT22;26355;45.528;9.234;2023-04-21T11:31:45;17.90;99.90
40670;DHT22;26355;45.528;9.234;2023-04-21T11:34:13;18.00;99.90
40670;DHT22;26355;45.528;9.234;2023-04-21T11:36:43;17.90;99.90
40670;DHT22;26355;45.528;9.234;2023-04-21T11:39:12;17.80;99.90
40670;DHT22;26355;45.528;9.234;2023-04-21T11:41:47;17.70;99.90
40670;DHT22;26355;45.528;9.234;2023-04-21T11:44:33;17.60;99.90
40670;DHT22;26355;45.528;9.234;2023-04-21T11:46:59;17.60;99.90
40670;DHT22;26355;45.528;9.234;2023-04-21T11:49:26;17.60;99.90
40670;DHT22;26355;45.528;9.234;2023-04-21T11:51:55;17.70;99.90
40670;DHT22;26355;45.528;9.234;2023-04-21T11:54:20;17.70;99.90
40670;DHT22;26355;45.528;9.234;2023-04-21T11:56:49;17.70;99.90
40670;DHT22;26355;45.528;9.234;2023-04-21T11:59:17;17.80;99.90
40670;DHT22;26355;45.528;9.234;2023-04-21T12:01:44;17.80;99.90
40670;DHT22;26355;45.528;9.234;2023-04-21T12:04:17;17.90;99.90
40670;DHT22;26355;45.528;9.234;2023-04-21T12:06:56;18.00;99.90
40670;DHT22;26355;45.528;9.234;2023-04-21T12:09:21;18.10;99.90
40670;DHT22;26355;45.528;9.234;2023-04-21T12:11:49;18.10;99.90
40670;DHT22;26355;45.528;9.234;2023-04-21T12:14:16;18.10;99.90
40670;DHT22;26355;45.528;9.234;2023-04-21T12:16:42;18.30;99.90
40670;DHT22;26355;45.528;9.234;2023-04-21T12:19:07;18.40;99.90
40670;DHT22;26355;45.528;9.234;2023-04-21T12:21:36;18.50;99.90
40670;DHT22;26355;45.528;9.234;2023-04-21T12:24:03;18.60;99.90
40670;DHT22;26355;45.528;9.234;2023-04-21T12:26:29;18.70;99.90
40670;DHT22;26355;45.528;9.234;2023-04-21T12:28:55;18.70;99.90
40670;DHT22;26355;45.528;9.234;2023-04-21T12:31:20;18.80;99.90
40670;DHT22;26355;45.528;9.234;2023-04-21T12:33:46;18.90;99.90
40670;DHT22;26355;45.528;9.234;2023-04-21T12:36:12;19.00;99.90
40670;DHT22;26355;45.528;9.234;2023-04-21T12:38:37;19.20;99.90
40670;DHT22;26355;45.528;9.234;2023-04-21T12:41:03;19.30;99.90
40670;DHT22;26355;45.528;9.234;2023-04-21T12:43:29;19.40;99.90
40670;DHT22;26355;45.528;9.234;2023-04-21T12:45:55;19.30;99.90
40670;DHT22;26355;45.528;9.234;2023-04-21T12:48:20;19.10;99.90
40670;DHT22;26355;45.528;9.234;2023-04-21T12:50:46;19.20;99.90
40670;DHT22;26355;45.528;9.234;2023-04-21T12:53:12;19.20;99.90
40670;DHT22;26355;45.528;9.234;2023-04-21T12:55:38;19.30;99.90
40670;DHT22;26355;45.528;9.234;2023-04-21T12:58:04;19.40;99.90
40670;DHT22;26355;45.528;9.234;2023-04-21T13:00:29;19.40;99.90
40670;DHT22;26355;45.528;9.234;2023-04-21T13:02:56;19.40;99.90
40670;DHT22;26355;45.528;9.234;2023-04-21T13:05:21;19.50;99.90
40670;DHT22;26355;45.528;9.234;2023-04-21T13:07:47;19.60;99.90
40670;DHT22;26355;45.528;9.234;2023-04-21T13:10:12;19.50;99.90
40670;DHT22;26355;45.528;9.234;2023-04-21T13:12:38;19.50;99.90
40670;DHT22;26355;45.528;9.234;2023-04-21T13:15:04;19.40;99.90
40670;DHT22;26355;45.528;9.234;2023-04-21T13:17:30;19.40;99.90
40670;DHT22;26355;45.528;9.234;2023-04-21T13:19:56;19.50;99.90
40670;DHT22;26355;45.528;9.234;2023-04-21T13:22:22;19.40;99.90
40670;DHT22;26355;45.528;9.234;2023-04-21T13:24:48;19.40;99.90
40670;DHT22;26355;45.528;9.234;2023-04-21T13:27:13;19.40;99.90
40670;DHT22;26355;45.528;9.234;2023-04-21T13:29:39;19.40;99.90
40670;DHT22;26355;45.528;9.234;2023-04-21T13:32:06;19.50;99.90
40670;DHT22;26355;45.528;9.234;2023-04-21T13:34:32;19.60;99.90
40670;DHT22;26355;45.528;9.234;2023-04-21T13:36:58;19.60;99.90
40670;DHT22;26355;45.528;9.234;2023-04-21T13:39:23;19.60;99.90
40670;DHT22;26355;45.528;9.234;2023-04-21T13:41:50;19.60;99.90
40670;DHT22;26355;45.528;9.234;2023-04-21T13:44:17;19.60;99.90
40670;DHT22;26355;45.528;9.234;2023-04-21T13:46:43;19.60;99.90
40670;DHT22;26355;45.528;9.234;2023-04-21T13:49:09;19.60;99.90
40670;DHT22;26355;45.528;9.234;2023-04-21T13:51:34;19.60;99.90
40670;DHT22;26355;45.528;9.234;2023-04-21T13:54:00;19.70;99.90
40670;DHT22;26355;45.528;9.234;2023-04-21T13:56:26;19.60;99.90
40670;DHT22;26355;45.528;9.234;2023-04-21T13:58:51;19.60;99.90
40670;DHT22;26355;45.528;9.234;2023-04-21T14:01:17;19.60;99.90
40670;DHT22;26355;45.528;9.234;2023-04-21T14:03:42;19.60;99.90
40670;DHT22;26355;45.528;9.234;2023-04-21T14:06:08;19.60;99.90
40670;DHT22;26355;45.528;9.234;2023-04-21T14:08:34;19.50;99.90
40670;DHT22;26355;45.528;9.234;2023-04-21T14:10:59;19.50;99.90
40670;DHT22;26355;45.528;9.234;2023-04-21T14:13:25;19.50;99.90
40670;DHT22;26355;45.528;9.234;2023-04-21T14:15:56;19.40;99.90
40670;DHT22;26355;45.528;9.234;2023-04-21T14:18:22;19.20;99.90
40670;DHT22;26355;45.528;9.234;2023-04-21T14:20:48;19.30;99.90
40670;DHT22;26355;45.528;9.234;2023-04-21T14:23:14;19.20;99.90
40670;DHT22;26355;45.528;9.234;2023-04-21T14:25:40;19.30;99.90
40670;DHT22;26355;45.528;9.234;2023-04-21T14:28:05;19.20;99.90
40670;DHT22;26355;45.528;9.234;2023-04-21T14:30:33;19.20;99.90
40670;DHT22;26355;45.528;9.234;2023-04-21T14:33:00;19.20;99.90
40670;DHT22;26355;45.528;9.234;2023-04-21T14:35:26;19.20;99.90
40670;DHT22;26355;45.528;9.234;2023-04-21T14:37:52;19.10;99.90
40670;DHT22;26355;45.528;9.234;2023-04-21T14:40:17;19.00;99.90
40670;DHT22;26355;45.528;9.234;2023-04-21T14:42:48;19.10;99.90
40670;DHT22;26355;45.528;9.234;2023-04-21T14:45:14;19.20;99.90
40670;DHT22;26355;45.528;9.234;2023-04-21T14:47:40;19.20;99.90
40670;DHT22;26355;45.528;9.234;2023-04-21T14:50:07;19.10;99.90
40670;DHT22;26355;45.528;9.234;2023-04-21T14:52:32;19.20;99.90
40670;DHT22;26355;45.528;9.234;2023-04-21T14:54:58;19.20;99.90
40670;DHT22;26355;45.528;9.234;2023-04-21T14:57:24;19.20;99.90
40670;DHT22;26355;45.528;9.234;2023-04-21T14:59:52;19.20;99.90
40670;DHT22;26355;45.528;9.234;2023-04-21T15:02:21;19.10;99.90
40670;DHT22;26355;45.528;9.234;2023-04-21T15:04:47;19.20;99.90
40670;DHT22;26355;45.528;9.234;2023-04-21T15:07:13;19.20;99.90
40670;DHT22;26355;45.528;9.234;2023-04-21T15:09:39;19.20;99.90
40670;DHT22;26355;45.528;9.234;2023-04-21T15:12:08;19.10;99.90
40670;DHT22;26355;45.528;9.234;2023-04-21T15:14:34;19.10;99.90
40670;DHT22;26355;45.528;9.234;2023-04-21T15:16:59;19.10;99.90
40670;DHT22;26355;45.528;9.234;2023-04-21T15:19:25;19.10;99.90
40670;DHT22;26355;45.528;9.234;2023-04-21T15:21:51;19.10;99.90
40670;DHT22;26355;45.528;9.234;2023-04-21T15:24:16;19.10;99.90
40670;DHT22;26355;45.528;9.234;2023-04-21T15:26:42;19.10;99.90
40670;DHT22;26355;45.528;9.234;2023-04-21T15:29:08;19.10;99.90
40670;DHT22;26355;45.528;9.234;2023-04-21T15:31:33;19.10;99.90
40670;DHT22;26355;45.528;9.234;2023-04-21T15:33:59;19.20;99.90
40670;DHT22;26355;45.528;9.234;2023-04-21T15:36:25;19.10;99.90
40670;DHT22;26355;45.528;9.234;2023-04-21T15:38:51;19.10;99.90
40670;DHT22;26355;45.528;9.234;2023-04-21T15:41:17;19.00;99.90
40670;DHT22;26355;45.528;9.234;2023-04-21T15:43:43;19.00;99.90
40670;DHT22;26355;45.528;9.234;2023-04-21T15:46:08;19.00;99.90
40670;DHT22;26355;45.528;9.234;2023-04-21T15:48:40;18.90;99.90